Time;durP1;ratioP1;P1;durP2;ratioP2;P2;SDS_P1;SDS_P2;PMS_P1;PMS_P2;Temp;Humidity;BMP_temperature;BMP_pressure;BME280_temperature;BME280_humidity;BME280_pressure;Samples;Min_cycle;Max_cycle;Signal;HPM_P1;HPM_P2
2024/01/24 00:02:38;;;;;;;25.20;6.70;;;;;;;3.41;100.00;100864.88;221288;1263;139481;-91
2024/01/24 00:07:38;;;;;;;23.30;6.50;;;;;;;3.40;100.00;100836.67;221834;1264;138500;-90
2024/01/24 00:12:39;;;;;;;24.60;7.70;;;;;;;3.42;100.00;100812.11;221328;1262;139489;-92
2024/01/24 00:17:40;;;;;;;24.50;6.40;;;;;;;3.44;100.00;100785.70;221684;1266;138889;-89
2024/01/24 00:22:41;;;;;;;16.40;5.50;;;;;;;3.45;100.00;100761.16;221432;1264;140218;-93
2024/01/24 00:27:42;;;;;;;19.40;6.40;;;;;;;3.44;100.00;100747.27;222018;1264;97037;-93
2024/01/24 00:32:43;;;;;;;16.20;5.00;;;;;;;3.44;100.00;100729.35;221234;1262;140035;-93
2024/01/24 00:37:45;;;;;;;18.50;5.80;;;;;;;3.45;100.00;100721.05;221623;1263;138560;-92
2024/01/24 00:42:45;;;;;;;19.00;5.30;;;;;;;3.45;100.00;100714.84;220897;1262;141615;-91
2024/01/24 00:47:46;;;;;;;20.80;5.70;;;;;;;3.44;100.00;100700.73;221614;1266;138647;-91
2024/01/24 00:52:51;;;;;;;31.80;5.90;;;;;;;3.43;100.00;100680.02;220600;1264;139322;-92
2024/01/24 00:57:53;;;;;;;19.80;6.50;;;;;;;3.42;100.00;100653.23;221646;1266;96694;-91
2024/01/24 01:02:53;;;;;;;22.10;6.20;;;;;;;3.43;100.00;100653.20;221064;1264;139550;-90
2024/01/24 01:07:56;;;;;;;22.20;5.90;;;;;;;3.44;100.00;100647.32;221649;1266;139229;-92
2024/01/24 01:13:01;;;;;;;22.10;5.60;;;;;;;3.44;100.00;100622.77;221874;1263;140346;-90
2024/01/24 01:18:01;;;;;;;20.80;5.60;;;;;;;3.47;100.00;100583.70;222037;1263;138572;-91
2024/01/24 01:23:02;;;;;;;19.20;5.00;;;;;;;3.48;100.00;100562.38;221320;1264;140054;-91
2024/01/24 01:28:03;;;;;;;21.80;5.80;;;;;;;3.49;100.00;100557.61;221860;1263;96483;-89
2024/01/24 01:33:06;;;;;;;20.80;5.60;;;;;;;3.52;100.00;100570.53;221345;1263;139754;-94
2024/01/24 01:38:06;;;;;;;18.00;5.50;;;;;;;3.54;100.00;100576.09;221819;1263;138740;-91
2024/01/24 01:43:13;;;;;;;23.50;5.90;;;;;;;3.57;100.00;100560.88;221398;1263;139903;-94
2024/01/24 01:48:15;;;;;;;18.00;5.10;;;;;;;3.60;100.00;100495.16;222022;1263;139237;-94
2024/01/24 01:53:18;;;;;;;15.50;4.70;;;;;;;3.63;100.00;100446.20;221374;1263;140022;-94
2024/01/24 01:58:26;;;;;;;18.20;4.00;;;;;;;3.68;100.00;100438.38;222090;1266;138529;-92
2024/01/24 02:03:28;;;;;;;22.80;4.70;;;;;;;3.72;100.00;100418.28;221473;1268;139687;-92
2024/01/24 02:08:34;;;;;;;18.60;4.80;;;;;;;3.80;100.00;100386.45;222029;1268;138677;-93
2024/01/24 02:13:35;;;;;;;14.90;3.80;;;;;;;3.85;100.00;100343.69;221284;1269;139582;-90
2024/01/24 02:18:37;;;;;;;24.10;4.60;;;;;;;3.90;100.00;100334.92;221991;1268;138693;-87
2024/01/24 02:23:42;;;;;;;22.40;4.60;;;;;;;3.97;100.00;100320.95;221516;1268;139481;-94
2024/01/24 02:28:45;;;;;;;17.80;4.40;;;;;;;4.04;100.00;100314.29;221945;1269;138533;-91
2024/01/24 02:33:46;;;;;;;19.10;4.10;;;;;;;4.13;100.00;100296.31;221882;1264;141026;-91
2024/01/24 02:38:47;;;;;;;16.20;4.60;;;;;;;4.22;100.00;100280.06;222270;1268;139093;-90
2024/01/24 02:43:53;;;;;;;16.00;5.00;;;;;;;4.30;100.00;100261.41;221571;1264;139394;-93
2024/01/24 02:48:53;;;;;;;19.00;4.90;;;;;;;4.36;100.00;100259.02;222237;1264;137537;-95
2024/01/24 02:53:54;;;;;;;16.80;4.20;;;;;;;4.40;100.00;100248.98;221489;1264;139343;-92
2024/01/24 02:58:57;;;;;;;20.20;4.90;;;;;;;4.43;100.00;100215.20;222179;1264;138629;-93
2024/01/24 03:03:58;;;;;;;15.50;4.30;;;;;;;4.43;100.00;100186.09;222000;1267;140404;-92
2024/01/24 03:08:59;;;;;;;20.60;5.90;;;;;;;4.43;100.00;100175.59;222165;1264;138615;-89
2024/01/24 03:13:59;;;;;;;14.10;4.20;;;;;;;4.45;100.00;100169.73;221551;1264;139365;-92
2024/01/24 03:18:59;;;;;;;16.50;4.60;;;;;;;4.45;100.00;100161.17;222136;1264;140496;-94
2024/01/24 03:24:00;;;;;;;16.40;3.60;;;;;;;4.46;100.00;100157.91;221587;1267;139538;-93
2024/01/24 03:29:02;;;;;;;11.20;4.00;;;;;;;4.48;100.00;100141.94;221878;1267;139047;-92
2024/01/24 03:34:03;;;;;;;18.50;5.30;;;;;;;4.49;100.00;100116.59;221337;1264;139407;-91
2024/01/24 03:39:09;;;;;;;17.00;5.10;;;;;;;4.55;100.00;100092.78;222015;1264;138328;-95
2024/01/24 03:44:09;;;;;;;16.70;5.80;;;;;;;4.58;100.00;100062.59;221302;1264;140669;-92
2024/01/24 03:49:10;;;;;;;13.80;4.10;;;;;;;4.59;100.00;100051.02;222206;1264;138546;-92
2024/01/24 03:54:10;;;;;;;15.30;4.70;;;;;;;4.53;100.00;100055.61;221445;1269;139366;-90
2024/01/24 03:59:11;;;;;;;17.60;5.80;;;;;;;4.45;100.00;100045.64;221740;1269;138495;-94
2024/01/24 04:04:12;;;;;;;19.50;4.70;;;;;;;4.36;100.00;100044.67;221246;1264;139550;-90
2024/01/24 04:09:12;;;;;;;17.00;5.60;;;;;;;4.29;100.00;100043.29;221713;1264;96647;-92
2024/01/24 04:14:13;;;;;;;15.60;6.30;;;;;;;4.20;100.00;100013.70;220873;1264;139448;-92
2024/01/24 04:19:14;;;;;;;16.60;4.80;;;;;;;4.13;100.00;99995.45;221455;1264;138823;-91
2024/01/24 04:24:15;;;;;;;19.10;5.70;;;;;;;4.04;100.00;99968.16;220483;1264;139676;-87
2024/01/24 04:29:18;;;;;;;18.10;5.40;;;;;;;3.99;100.00;99961.03;221726;1263;138262;-92
2024/01/24 04:34:20;;;;;;;18.80;5.70;;;;;;;3.95;100.00;99937.27;221129;1264;138757;-88
2024/01/24 04:39:21;;;;;;;20.10;5.60;;;;;;;3.90;100.00;99918.65;221268;1264;96477;-89
2024/01/24 04:44:22;;;;;;;16.10;5.80;;;;;;;3.88;100.00;99923.43;220518;1264;138595;-90
2024/01/24 04:49:44;;;;;;;18.40;5.70;;;;;;;3.86;100.00;99901.05;221021;1264;138481;-92
2024/01/24 04:54:46;;;;;;;17.20;6.30;;;;;;;3.85;100.00;99889.28;220647;1264;138843;-89
2024/01/24 04:59:46;;;;;;;16.30;5.60;;;;;;;3.86;100.00;99866.05;221106;1264;138331;-89
2024/01/24 05:04:49;;;;;;;12.80;6.00;;;;;;;3.88;100.00;99852.34;220502;1264;139006;-89
2024/01/24 05:09:50;;;;;;;22.80;5.90;;;;;;;3.91;100.00;99847.14;220887;1264;139017;-88
2024/01/24 05:14:58;;;;;;;21.80;6.60;;;;;;;3.96;100.00;99823.41;220987;1264;138855;-88
2024/01/24 05:20:05;;;;;;;22.70;6.40;;;;;;;4.01;100.00;99804.02;221057;1264;139105;-87
2024/01/24 05:25:11;;;;;;;17.50;6.30;;;;;;;4.04;100.00;99792.20;221233;1264;138483;-89
2024/01/24 05:30:13;;;;;;;17.80;6.30;;;;;;;4.08;100.00;99765.55;220568;1264;139434;-90
2024/01/24 05:35:14;;;;;;;15.50;6.70;;;;;;;4.11;100.00;99747.98;221119;1264;138226;-84
2024/01/24 05:40:17;;;;;;;16.60;6.10;;;;;;;4.14;100.00;99708.84;220741;1264;139277;-91
2024/01/24 05:45:17;;;;;;;18.80;7.40;;;;;;;4.18;100.00;99712.13;221292;1264;97298;-89
2024/01/24 05:50:19;;;;;;;15.90;8.60;;;;;;;4.24;100.00;99709.02;220611;1264;139047;-89
2024/01/24 05:55:20;;;;;;;22.30;8.90;;;;;;;4.30;100.00;99711.02;221208;1264;138529;-89
2024/01/24 06:00:21;;;;;;;19.40;9.10;;;;;;;4.35;100.00;99700.48;220599;1264;139572;-85
2024/01/24 06:05:22;;;;;;;21.50;10.30;;;;;;;4.39;100.00;99696.39;221011;1265;138532;-87
2024/01/24 06:10:26;;;;;;;16.60;8.80;;;;;;;4.44;100.00;99684.06;220774;1267;139124;-85
2024/01/24 06:15:47;;;;;;;17.40;8.80;;;;;;;4.49;100.00;99683.23;221294;1267;104253;-87
2024/01/24 06:20:49;;;;;;;16.00;8.70;;;;;;;4.56;100.00;99669.21;220604;1264;139587;-89
2024/01/24 06:25:50;;;;;;;14.00;8.40;;;;;;;4.61;100.00;99668.09;221134;1267;138334;-92
2024/01/24 06:30:51;;;;;;;14.90;8.20;;;;;;;4.71;100.00;99664.27;220687;1267;138934;-87
2024/01/24 06:35:53;;;;;;;17.80;8.80;;;;;;;4.82;100.00;99652.59;221197;1265;138410;-90
2024/01/24 06:41:04;;;;;;;17.40;7.70;;;;;;;4.91;100.00;99640.17;220741;1264;139395;-87
2024/01/24 06:46:12;;;;;;;15.00;8.40;;;;;;;5.02;100.00;99632.14;222211;1264;96525;-88
2024/01/24 06:51:33;;;;;;;15.20;8.70;;;;;;;5.15;100.00;99622.02;220359;1264;138924;-88
2024/01/24 06:56:36;;;;;;;18.50;10.00;;;;;;;5.29;100.00;99614.34;220987;1264;138506;-87
2024/01/24 07:01:53;;;;;;;28.70;17.40;;;;;;;5.45;100.00;99604.43;220408;1264;139799;-89
2024/01/24 07:06:53;;;;;;;;;;;;;;;5.59;100.00;99593.84;220829;1264;138469;-85
2024/01/24 07:12:13;;;;;;;27.40;14.70;;;;;;;5.69;100.00;99592.30;220617;1264;125492;-87
2024/01/24 07:17:15;;;;;;;26.30;16.10;;;;;;;5.79;100.00;99599.21;221189;1267;138448;-88
2024/01/24 07:22:16;;;;;;;30.00;16.00;;;;;;;5.90;100.00;99608.68;220459;1264;139730;-87
2024/01/24 07:27:16;;;;;;;31.90;14.20;;;;;;;5.99;100.00;99605.55;220896;1263;96476;-88
2024/01/24 07:32:19;;;;;;;26.70;13.90;;;;;;;6.07;100.00;99600.30;220398;1263;139663;-87
2024/01/24 07:37:20;;;;;;;26.50;16.50;;;;;;;6.17;100.00;99609.66;221129;1264;138488;-87
2024/01/24 07:42:20;;;;;;;22.30;13.70;;;;;;;6.26;100.00;99591.52;220592;1264;139480;-86
2024/01/24 07:47:21;;;;;;;20.20;12.20;;;;;;;6.31;100.00;99597.15;221313;1264;139173;-87
2024/01/24 07:52:21;;;;;;;21.80;10.60;;;;;;;6.37;100.00;99596.68;220473;1264;139410;-87
2024/01/24 07:57:21;;;;;;;23.50;11.10;;;;;;;6.44;100.00;99584.77;221224;1267;96481;-88
2024/01/24 08:02:22;;;;;;;18.40;10.50;;;;;;;6.50;100.00;99576.18;220649;1264;139465;-87
2024/01/24 08:07:23;;;;;;;19.90;9.60;;;;;;;6.56;100.00;99574.16;221040;1264;138511;-86
2024/01/24 08:12:26;;;;;;;26.20;11.50;;;;;;;6.60;100.00;99575.13;220412;1264;139913;-87
2024/01/24 08:17:27;;;;;;;15.00;8.80;;;;;;;6.63;100.00;99566.50;221054;1264;139267;-86
2024/01/24 08:22:28;;;;;;;20.40;9.80;;;;;;;6.65;100.00;99555.53;220462;1264;139156;-85
2024/01/24 08:27:29;;;;;;;15.50;8.10;;;;;;;6.68;100.00;99557.83;221054;1264;96605;-85
2024/01/24 08:32:29;;;;;;;15.00;8.20;;;;;;;6.77;100.00;99568.40;220453;1263;140024;-84
2024/01/24 08:37:30;;;;;;;16.20;8.00;;;;;;;6.88;100.00;99565.11;221038;1264;138504;-85
2024/01/24 08:42:30;;;;;;;13.30;6.10;;;;;;;7.02;100.00;99552.20;220755;1264;139470;-85
2024/01/24 08:47:30;;;;;;;13.30;6.00;;;;;;;7.22;100.00;99563.22;221174;1263;138308;-86
2024/01/24 08:52:35;;;;;;;12.80;4.80;;;;;;;7.42;100.00;99567.33;220561;1263;139554;-86
2024/01/24 08:57:35;;;;;;;11.20;4.70;;;;;;;7.56;100.00;99550.65;221157;1264;96478;-84
2024/01/24 09:02:36;;;;;;;8.60;3.90;;;;;;;7.72;100.00;99543.98;220609;1264;139128;-85
2024/01/24 09:07:36;;;;;;;9.30;3.40;;;;;;;7.86;100.00;99546.05;221132;1264;138756;-86
2024/01/24 09:12:37;;;;;;;10.70;3.50;;;;;;;7.94;100.00;99540.00;220406;1264;139516;-86
2024/01/24 09:17:38;;;;;;;8.70;3.40;;;;;;;8.02;100.00;99534.27;220883;1264;138306;-86
2024/01/24 09:22:39;;;;;;;7.30;2.90;;;;;;;8.07;100.00;99540.41;220320;1264;138844;-88
2024/01/24 09:27:40;;;;;;;8.20;2.70;;;;;;;8.13;100.00;99530.73;221287;1263;96554;-86
2024/01/24 09:32:42;;;;;;;8.80;2.80;;;;;;;8.20;100.00;99528.91;220236;1267;139367;-88
2024/01/24 09:37:43;;;;;;;4.70;2.00;;;;;;;8.26;100.00;99526.30;223965;1264;138102;-87
2024/01/24 09:42:44;;;;;;;13.30;2.30;;;;;;;8.45;100.00;99529.52;223558;1264;138977;-86
2024/01/24 09:47:50;;;;;;;9.50;2.20;;;;;;;8.67;100.00;99536.15;222291;1267;138932;-88
2024/01/24 09:52:52;;;;;;;6.60;2.40;;;;;;;8.82;100.00;99539.59;220299;1264;139024;-90
2024/01/24 09:57:52;;;;;;;9.90;2.20;;;;;;;8.97;100.00;99540.09;221013;1264;96567;-88
2024/01/24 10:02:54;;;;;;;13.00;2.40;;;;;;;9.12;100.00;99543.75;220188;1264;140310;-86
2024/01/24 10:07:55;;;;;;;8.70;2.20;;;;;;;9.29;100.00;99541.36;221001;1264;138280;-89
2024/01/24 10:12:56;;;;;;;11.90;2.10;;;;;;;9.41;100.00;99537.92;220620;1264;139057;-89
2024/01/24 10:17:56;;;;;;;7.20;2.00;;;;;;;9.46;100.00;99537.55;220961;1264;138410;-89
2024/01/24 10:22:56;;;;;;;9.80;2.20;;;;;;;9.51;100.00;99531.52;219634;1264;1114648;-90
2024/01/24 10:27:58;;;;;;;12.70;2.50;;;;;;;9.61;100.00;99536.62;221266;1264;96663;-93
2024/01/24 10:32:58;;;;;;;9.20;2.30;;;;;;;9.67;100.00;99527.12;220315;1264;139640;-91
2024/01/24 10:37:59;;;;;;;14.50;2.30;;;;;;;9.70;100.00;99531.75;221108;1264;138862;-87
2024/01/24 10:43:08;;;;;;;17.80;4.80;;;;;;;9.77;100.00;99528.52;220552;1264;139414;-90
2024/01/24 10:48:11;;;;;;;15.70;3.70;;;;;;;9.86;100.00;99528.45;221077;1267;139527;-89
2024/01/24 10:53:16;;;;;;;10.80;2.20;;;;;;;9.90;100.00;99531.11;220823;1264;139326;-89
2024/01/24 10:58:17;;;;;;;9.60;2.40;;;;;;;9.90;100.00;99528.84;221134;1266;138604;-89
2024/01/24 11:03:17;;;;;;;9.80;2.80;;;;;;;9.87;100.00;99531.90;220675;1264;139462;-89
2024/01/24 11:08:33;;;;;;;15.70;3.80;;;;;;;9.83;100.00;99531.66;221129;1264;138276;-90
2024/01/24 11:13:37;;;;;;;13.80;2.40;;;;;;;9.80;100.00;99533.79;220716;1263;139716;-90
2024/01/24 11:18:37;;;;;;;12.90;2.50;;;;;;;9.82;100.00;99533.00;221315;1264;139328;-91
2024/01/24 11:23:40;;;;;;;10.70;2.30;;;;;;;9.83;100.00;99540.70;220809;1264;139689;-88
2024/01/24 11:28:41;;;;;;;18.30;3.90;;;;;;;9.82;100.00;99548.79;221216;1263;138621;-89
2024/01/24 11:34:08;;;;;;;13.70;2.20;;;;;;;9.84;100.00;99549.96;220645;1264;139764;-89
2024/01/24 11:39:38;;;;;;;14.40;3.30;;;;;;;9.91;100.00;99559.55;220980;1264;138101;-89
2024/01/24 11:44:38;;;;;;;15.90;2.70;;;;;;;10.00;100.00;99554.82;220706;1264;139255;-91
2024/01/24 11:49:38;;;;;;;16.20;3.30;;;;;;;10.03;100.00;99549.33;221041;1264;138718;-89
2024/01/24 11:54:50;;;;;;;17.50;3.90;;;;;;;10.03;100.00;99556.41;220644;1264;139706;-91
2024/01/24 11:59:55;;;;;;;13.70;2.60;;;;;;;10.02;100.00;99565.73;220773;1265;139787;-88
2024/01/24 12:04:56;;;;;;;15.80;3.60;;;;;;;9.98;100.00;99558.99;221093;1263;138874;-89
2024/01/24 12:09:56;;;;;;;11.10;2.80;;;;;;;9.95;100.00;99565.52;220888;1264;140387;-86
2024/01/24 12:14:56;;;;;;;18.20;3.50;;;;;;;9.89;100.00;99567.31;221128;1264;139694;-88
2024/01/24 12:19:58;;;;;;;16.40;3.90;;;;;;;9.82;100.00;99578.92;220450;1264;140109;-88
2024/01/24 12:25:00;;;;;;;17.50;3.60;;;;;;;9.78;100.00;99576.96;221046;1264;138461;-89
2024/01/24 12:30:01;;;;;;;15.30;2.80;;;;;;;9.73;100.00;99569.51;220643;1263;139548;-87
2024/01/24 12:35:01;;;;;;;18.20;4.90;;;;;;;9.69;100.00;99578.86;221280;1264;140595;-92
2024/01/24 12:40:07;;;;;;;16.80;3.00;;;;;;;9.67;100.00;99581.28;220949;1263;140014;-89
2024/01/24 12:45:11;;;;;;;11.20;3.30;;;;;;;9.70;100.00;99585.52;221152;1266;139188;-88
2024/01/24 12:50:12;;;;;;;16.50;3.10;;;;;;;9.70;100.00;99603.33;220575;1263;139500;-90
2024/01/24 12:55:13;;;;;;;19.10;3.80;;;;;;;9.65;100.00;99594.86;220992;1263;139662;-87
2024/01/24 13:00:15;;;;;;;16.60;3.20;;;;;;;9.63;100.00;99594.63;220403;1263;139914;-90
2024/01/24 13:05:18;;;;;;;15.50;2.60;;;;;;;9.61;100.00;99594.77;221044;1263;138451;-90
2024/01/24 13:10:19;;;;;;;12.60;2.80;;;;;;;9.60;100.00;99584.73;220708;1263;138864;-89
2024/01/24 13:15:19;;;;;;;17.00;2.80;;;;;;;9.55;100.00;99579.63;221299;1266;96627;-89
2024/01/24 13:20:20;;;;;;;14.10;2.70;;;;;;;9.47;100.00;99584.32;220473;1264;139878;-89
2024/01/24 13:25:20;;;;;;;9.80;2.70;;;;;;;9.42;100.00;99591.27;221279;1267;138454;-92
2024/01/24 13:30:21;;;;;;;11.80;2.70;;;;;;;9.39;100.00;99592.38;220678;1265;139330;-91
2024/01/24 13:35:21;;;;;;;14.80;3.10;;;;;;;9.32;100.00;99588.43;221248;1264;138340;-87
2024/01/24 13:40:21;;;;;;;12.90;3.00;;;;;;;9.26;100.00;99604.34;221216;1264;139368;-90
2024/01/24 13:45:23;;;;;;;11.00;3.20;;;;;;;9.18;100.00;99612.79;221319;1266;96525;-85
2024/01/24 13:50:24;;;;;;;18.40;3.50;;;;;;;9.14;100.00;99615.36;220550;1266;138969;-89
2024/01/24 13:55:25;;;;;;;19.50;3.70;;;;;;;9.11;100.00;99624.05;221107;1269;138353;-88
2024/01/24 14:00:26;;;;;;;21.30;3.70;;;;;;;9.11;100.00;99631.27;220576;1265;139789;-91
2024/01/24 14:05:26;;;;;;;13.40;2.80;;;;;;;9.13;100.00;99628.14;221048;1264;138349;-87
2024/01/24 14:10:27;;;;;;;13.40;2.90;;;;;;;9.13;100.00;99631.60;220277;1266;138710;-91
2024/01/24 14:15:27;;;;;;;16.50;2.90;;;;;;;9.12;100.00;99627.59;221182;1264;96507;-89
2024/01/24 14:20:28;;;;;;;17.70;3.50;;;;;;;9.09;100.00;99624.91;220550;1265;139593;-86
2024/01/24 14:25:28;;;;;;;15.50;3.50;;;;;;;9.06;100.00;99620.58;220936;1265;138463;-88
2024/01/24 14:30:29;;;;;;;19.80;4.50;;;;;;;9.06;100.00;99617.20;220650;1265;139946;-89
2024/01/24 14:35:30;;;;;;;15.90;3.60;;;;;;;9.04;100.00;99612.41;220970;1265;138369;-88
2024/01/24 14:40:32;;;;;;;17.80;3.80;;;;;;;9.03;100.00;99622.06;220431;1266;139443;-88
2024/01/24 14:45:32;;;;;;;23.70;4.80;;;;;;;9.04;100.00;99623.46;221173;1264;96534;-89
2024/01/24 14:50:33;;;;;;;25.30;5.40;;;;;;;9.02;100.00;99625.43;220702;1268;139461;-89
2024/01/24 14:55:33;;;;;;;20.50;3.50;;;;;;;8.98;100.00;99635.14;221285;1266;138668;-89
2024/01/24 15:00:33;;;;;;;16.30;4.50;;;;;;;8.97;100.00;99639.52;220461;1264;140097;-85
2024/01/24 15:05:34;;;;;;;20.40;3.70;;;;;;;8.96;100.00;99659.35;221187;1266;138278;-86
2024/01/24 15:10:34;;;;;;;17.70;4.00;;;;;;;8.91;100.00;99653.91;220733;1263;139491;-90
2024/01/24 15:15:34;;;;;;;25.00;3.70;;;;;;;8.82;100.00;99652.92;221373;1266;108219;-85
2024/01/24 15:20:35;;;;;;;19.00;3.70;;;;;;;8.75;100.00;99661.59;220759;1268;139445;-91
2024/01/24 15:25:37;;;;;;;16.20;4.70;;;;;;;8.69;100.00;99661.30;221112;1264;138216;-86
2024/01/24 15:30:37;;;;;;;16.70;3.60;;;;;;;8.66;100.00;99665.20;220759;1265;139360;-87
2024/01/24 15:35:38;;;;;;;14.60;3.90;;;;;;;8.64;100.00;99666.60;221050;1263;139021;-86
2024/01/24 15:40:38;;;;;;;18.40;3.90;;;;;;;8.56;100.00;99667.96;220785;1266;139644;-86
2024/01/24 15:45:38;;;;;;;18.90;4.00;;;;;;;8.49;100.00;99676.61;220994;1266;96636;-88
2024/01/24 15:50:39;;;;;;;16.70;4.20;;;;;;;8.44;100.00;99687.70;220588;1263;139274;-88
2024/01/24 15:55:39;;;;;;;18.20;3.00;;;;;;;8.43;100.00;99682.52;220972;1266;138803;-87
2024/01/24 16:00:40;;;;;;;14.30;3.30;;;;;;;8.43;100.00;99685.98;220714;1264;139292;-87
2024/01/24 16:05:46;;;;;;;20.60;5.30;;;;;;;8.40;100.00;99687.83;221279;1263;138299;-85
2024/01/24 16:10:47;;;;;;;15.40;4.30;;;;;;;8.41;100.00;99695.83;220746;1263;140787;-88
2024/01/24 16:15:49;;;;;;;20.10;4.00;;;;;;;8.37;100.00;99696.41;222066;1265;96593;-88
2024/01/24 16:20:49;;;;;;;14.80;3.80;;;;;;;8.34;100.00;99698.13;220485;1263;139123;-85
2024/01/24 16:25:50;;;;;;;18.70;3.30;;;;;;;8.32;100.00;99702.32;221189;1263;138326;-90
2024/01/24 16:30:50;;;;;;;16.30;3.20;;;;;;;8.32;100.00;99696.45;220577;1266;139273;-88
2024/01/24 16:35:51;;;;;;;16.60;4.00;;;;;;;8.34;100.00;99705.86;221056;1264;138297;-86
2024/01/24 16:40:52;;;;;;;19.20;3.60;;;;;;;8.31;100.00;99706.16;220578;1266;140031;-85
2024/01/24 16:45:55;;;;;;;11.10;3.10;;;;;;;8.31;100.00;99715.88;221214;1264;96497;-87
2024/01/24 16:50:55;;;;;;;19.50;3.20;;;;;;;8.28;100.00;99722.27;220678;1265;139059;-91
2024/01/24 16:55:56;;;;;;;18.60;4.10;;;;;;;8.24;100.00;99733.75;220866;1268;138342;-89
2024/01/24 17:00:56;;;;;;;14.90;3.10;;;;;;;8.21;100.00;99733.16;220529;1264;139554;-88
2024/01/24 17:05:57;;;;;;;17.70;3.40;;;;;;;8.16;100.00;99730.74;221203;1266;139056;-90
2024/01/24 17:10:57;;;;;;;14.00;4.00;;;;;;;8.14;100.00;99721.64;220470;1264;139361;-91
2024/01/24 17:15:57;;;;;;;31.70;5.00;;;;;;;8.10;100.00;99723.16;221336;1266;97041;-89
2024/01/24 17:20:58;;;;;;;21.50;4.30;;;;;;;8.08;100.00;99724.63;220515;1263;139037;-92
2024/01/24 17:25:59;;;;;;;15.20;3.30;;;;;;;8.07;100.00;99725.02;221031;1266;138171;-89
2024/01/24 17:31:00;;;;;;;17.50;3.50;;;;;;;8.10;100.00;99709.30;220502;1268;138833;-90
2024/01/24 17:36:01;;;;;;;14.30;2.80;;;;;;;8.13;100.00;99720.77;221092;1265;138458;-89
2024/01/24 17:41:01;;;;;;;16.30;3.50;;;;;;;8.17;100.00;99725.27;220724;1268;151153;-87
2024/01/24 17:46:02;;;;;;;14.60;2.70;;;;;;;8.20;100.00;99731.44;221225;1264;96540;-87
2024/01/24 17:51:02;;;;;;;10.40;2.00;;;;;;;8.26;100.00;99742.21;220373;1269;139373;-91
2024/01/24 17:56:03;;;;;;;8.50;2.10;;;;;;;8.24;100.00;99734.61;221042;1268;139018;-87
2024/01/24 18:01:04;;;;;;;8.90;2.20;;;;;;;8.15;100.00;99734.88;220651;1265;139553;-93
2024/01/24 18:06:04;;;;;;;13.40;2.90;;;;;;;8.05;100.00;99738.70;221232;1266;138205;-88
2024/01/24 18:11:05;;;;;;;8.20;2.30;;;;;;;7.97;100.00;99739.95;220619;1266;139734;-91
2024/01/24 18:16:06;;;;;;;11.30;2.30;;;;;;;7.91;100.00;99731.58;221477;1264;96585;-88
2024/01/24 18:21:07;;;;;;;15.90;2.80;;;;;;;7.89;100.00;99733.84;220574;1269;140213;-92
2024/01/24 18:26:09;;;;;;;16.20;2.90;;;;;;;7.86;100.00;99744.38;221113;1264;138980;-93
2024/01/24 18:31:10;;;;;;;13.00;2.40;;;;;;;7.84;100.00;99742.48;220827;1264;139243;-85
2024/01/24 18:36:10;;;;;;;14.20;2.70;;;;;;;7.85;100.00;99743.11;221040;1264;138246;-86
2024/01/24 18:41:17;;;;;;;9.90;2.40;;;;;;;7.87;100.00;99746.80;220438;1267;139380;-87
2024/01/24 18:46:17;;;;;;;;;;;;;;;7.90;100.00;99745.13;221514;1268;138038;-91
2024/01/24 18:51:18;;;;;;;8.20;2.10;;;;;;;7.89;100.00;99761.86;221265;1266;125502;-86
2024/01/24 18:56:18;;;;;;;10.00;2.60;;;;;;;7.92;100.00;99759.45;221701;1266;137931;-85
2024/01/24 19:01:18;;;;;;;11.60;2.50;;;;;;;7.93;100.00;99772.86;221327;1264;139133;-87
2024/01/24 19:06:19;;;;;;;11.70;3.60;;;;;;;7.95;100.00;99769.44;221062;1266;138880;-86
2024/01/24 19:11:19;;;;;;;13.20;2.50;;;;;;;7.96;100.00;99778.21;220725;1266;139697;-89
2024/01/24 19:16:20;;;;;;;12.00;2.30;;;;;;;7.97;100.00;99781.90;221160;1263;138889;-86
2024/01/24 19:21:20;;;;;;;9.10;2.70;;;;;;;7.95;100.00;99793.70;220601;1264;140592;-88
2024/01/24 19:26:21;;;;;;;10.40;2.70;;;;;;;7.94;100.00;99799.25;221337;1266;138709;-88
2024/01/24 19:31:21;;;;;;;14.90;3.60;;;;;;;7.92;100.00;99795.55;220560;1263;139376;-89
2024/01/24 19:36:22;;;;;;;14.40;2.50;;;;;;;7.87;100.00;99802.23;221202;1269;140160;-89
2024/01/24 19:41:23;;;;;;;11.80;2.10;;;;;;;7.81;100.00;99799.10;220583;1267;140822;-90
2024/01/24 19:46:24;;;;;;;8.90;2.40;;;;;;;7.73;100.00;99797.52;221041;1263;138819;-87
2024/01/24 19:51:25;;;;;;;12.10;2.60;;;;;;;7.62;100.00;99800.90;220925;1266;138880;-88
2024/01/24 19:56:25;;;;;;;13.00;2.90;;;;;;;7.53;100.00;99817.20;221336;1263;138276;-91
2024/01/24 20:01:26;;;;;;;11.00;2.40;;;;;;;7.45;100.00;99816.64;220536;1266;139719;-86
2024/01/24 20:06:26;;;;;;;15.70;2.70;;;;;;;7.40;100.00;99828.68;221212;1267;138473;-87
2024/01/24 20:11:26;;;;;;;18.40;4.20;;;;;;;7.36;100.00;99834.48;220641;1267;139581;-87
2024/01/24 20:16:27;;;;;;;18.90;3.60;;;;;;;7.33;100.00;99834.60;221217;1264;138856;-88
2024/01/24 20:21:28;;;;;;;17.10;3.90;;;;;;;7.29;100.00;99836.19;220772;1266;139455;-87
2024/01/24 20:26:29;;;;;;;24.50;4.80;;;;;;;7.24;100.00;99839.09;221043;1268;138441;-86
2024/01/24 20:31:31;;;;;;;18.80;3.50;;;;;;;7.22;100.00;99840.62;220603;1269;139137;-86
2024/01/24 20:36:31;;;;;;;18.90;3.30;;;;;;;7.18;100.00;99830.17;221229;1267;139541;-89
2024/01/24 20:41:32;;;;;;;27.00;4.80;;;;;;;7.11;100.00;99833.02;220578;1269;139208;-87
2024/01/24 20:46:32;;;;;;;25.90;5.00;;;;;;;7.05;100.00;99832.70;221254;1267;138648;-86
2024/01/24 20:51:32;;;;;;;22.90;4.80;;;;;;;7.01;100.00;99828.73;220866;1267;140201;-86
2024/01/24 20:56:33;;;;;;;23.00;4.40;;;;;;;6.99;100.00;99825.58;221091;1268;138309;-87
2024/01/24 21:01:33;;;;;;;19.50;3.50;;;;;;;7.00;100.00;99810.81;220565;1269;139429;-89
2024/01/24 21:06:34;;;;;;;20.50;4.60;;;;;;;7.01;100.00;99803.23;221180;1269;138272;-87
2024/01/24 21:11:34;;;;;;;23.70;4.40;;;;;;;7.04;100.00;99804.00;220588;1269;139676;-88
2024/01/24 21:16:35;;;;;;;19.30;3.50;;;;;;;7.06;100.00;99807.78;221235;1264;138414;-89
2024/01/24 21:21:36;;;;;;;20.40;3.60;;;;;;;7.05;100.00;99812.46;220625;1267;140134;-92
2024/01/24 21:26:36;;;;;;;22.10;4.90;;;;;;;7.04;100.00;99820.41;221152;1264;139407;-89
2024/01/24 21:31:37;;;;;;;21.60;4.00;;;;;;;7.07;100.00;99836.63;220597;1269;139019;-87
2024/01/24 21:36:38;;;;;;;23.30;3.70;;;;;;;7.09;100.00;99833.23;220984;1269;138293;-90
2024/01/24 21:41:38;;;;;;;22.50;4.30;;;;;;;7.11;100.00;99832.70;220756;1264;139756;-90
2024/01/24 21:46:38;;;;;;;26.40;4.00;;;;;;;7.11;100.00;99847.96;221118;1264;138485;-89
2024/01/24 21:51:39;;;;;;;18.10;4.50;;;;;;;7.11;100.00;99856.00;220771;1267;139110;-89
2024/01/24 21:56:39;;;;;;;26.30;4.50;;;;;;;7.06;100.00;99864.69;221020;1264;138222;-90
2024/01/24 22:01:40;;;;;;;22.10;4.40;;;;;;;6.97;100.00;99872.60;220774;1264;140784;-87
2024/01/24 22:06:40;;;;;;;27.30;4.60;;;;;;;6.91;100.00;99872.90;221148;1268;139876;-88
2024/01/24 22:11:41;;;;;;;18.00;4.20;;;;;;;6.91;100.00;99872.04;220709;1267;138860;-86
2024/01/24 22:16:41;;;;;;;18.10;4.30;;;;;;;6.93;100.00;99879.72;221343;1267;139275;-87
2024/01/24 22:21:42;;;;;;;18.40;4.10;;;;;;;6.97;100.00;99890.41;220836;1264;139529;-86
2024/01/24 22:26:43;;;;;;;26.30;4.10;;;;;;;6.99;100.00;99882.95;220990;1264;248683;-86
2024/01/24 22:31:44;;;;;;;16.50;3.30;;;;;;;6.99;100.00;99893.19;220837;1264;139573;-88
2024/01/24 22:36:45;;;;;;;22.20;4.50;;;;;;;7.00;100.00;99907.02;221182;1267;138254;-90
2024/01/24 22:41:45;;;;;;;19.00;4.80;;;;;;;7.00;100.00;99906.80;220638;1264;139466;-84
2024/01/24 22:46:45;;;;;;;17.40;5.60;;;;;;;7.00;100.00;99900.23;221231;1267;138398;-85
2024/01/24 22:51:46;;;;;;;18.40;3.60;;;;;;;6.97;100.00;99897.28;220898;1264;138494;-88